sensor_id;sensor_type;location;lat;lon;timestamp;pressure;altitude;pressure_sealevel;temperature;humidity
64388;BME280;50709;52.648;4.764;2023-04-06T00:01:20;101870.38;;;11.69;56.80
64388;BME280;50709;52.648;4.764;2023-04-06T00:03:45;101865.13;;;11.68;58.29
64388;BME280;50709;52.648;4.764;2023-04-06T00:06:33;101857.25;;;11.66;56.47
64388;BME280;50709;52.648;4.764;2023-04-06T00:09:20;101858.38;;;11.24;54.90
64388;BME280;50709;52.648;4.764;2023-04-06T00:11:47;101854.72;;;11.13;57.52
64388;BME280;50709;52.648;4.764;2023-04-06T00:14:14;101847.53;;;11.56;58.90
64388;BME280;50709;52.648;4.764;2023-04-06T00:16:43;101858.84;;;11.00;55.07
64388;BME280;50709;52.648;4.764;2023-04-06T00:19:13;101850.66;;;11.33;59.06
64388;BME280;50709;52.648;4.764;2023-04-06T00:22:04;101841.31;;;10.92;57.26
64388;BME280;50709;52.648;4.764;2023-04-06T00:24:30;101843.63;;;10.75;57.88
64388;BME280;50709;52.648;4.764;2023-04-06T00:27:16;101840.41;;;10.90;58.23
64388;BME280;50709;52.648;4.764;2023-04-06T00:29:43;101851.41;;;10.71;57.76
64388;BME280;50709;52.648;4.764;2023-04-06T00:32:08;101812.59;;;10.42;55.02
64388;BME280;50709;52.648;4.764;2023-04-06T00:34:54;101837.13;;;11.02;58.20
64388;BME280;50709;52.648;4.764;2023-04-06T00:37:20;101831.31;;;10.22;54.51
64388;BME280;50709;52.648;4.764;2023-04-06T00:39:47;101827.94;;;10.28;58.10
64388;BME280;50709;52.648;4.764;2023-04-06T00:42:14;101815.13;;;10.40;57.09
64388;BME280;50709;52.648;4.764;2023-04-06T00:44:43;101828.72;;;10.22;57.85
64388;BME280;50709;52.648;4.764;2023-04-06T00:47:14;101833.47;;;10.42;58.34
64388;BME280;50709;52.648;4.764;2023-04-06T00:49:40;101830.31;;;10.60;56.10
64388;BME280;50709;52.648;4.764;2023-04-06T00:52:06;101815.75;;;10.74;57.71
64388;BME280;50709;52.648;4.764;2023-04-06T00:54:41;101821.84;;;10.73;57.17
64388;BME280;50709;52.648;4.764;2023-04-06T00:57:30;101808.44;;;11.07;56.96
64388;BME280;50709;52.648;4.764;2023-04-06T01:00:06;101790.72;;;10.89;57.56
64388;BME280;50709;52.648;4.764;2023-04-06T01:02:36;101815.47;;;10.59;55.97
64388;BME280;50709;52.648;4.764;2023-04-06T01:05:06;101807.94;;;10.76;56.88
64388;BME280;50709;52.648;4.764;2023-04-06T01:07:33;101794.59;;;10.60;56.44
64388;BME280;50709;52.648;4.764;2023-04-06T01:10:06;101780.00;;;10.72;57.19
64388;BME280;50709;52.648;4.764;2023-04-06T01:12:52;101793.22;;;10.34;55.64
64388;BME280;50709;52.648;4.764;2023-04-06T01:15:23;101758.81;;;10.55;58.18
64388;BME280;50709;52.648;4.764;2023-04-06T01:17:53;101753.75;;;11.22;57.65
64388;BME280;50709;52.648;4.764;2023-04-06T01:20:21;101789.81;;;11.43;56.96
64388;BME280;50709;52.648;4.764;2023-04-06T01:22:47;101774.84;;;11.36;56.45
64388;BME280;50709;52.648;4.764;2023-04-06T01:25:21;101772.28;;;11.38;57.40
64388;BME280;50709;52.648;4.764;2023-04-06T01:27:46;101776.47;;;11.26;55.83
64388;BME280;50709;52.648;4.764;2023-04-06T01:30:22;101758.84;;;11.11;57.43
64388;BME280;50709;52.648;4.764;2023-04-06T01:33:12;101769.25;;;11.08;56.13
64388;BME280;50709;52.648;4.764;2023-04-06T01:35:58;101765.50;;;10.91;58.04
64388;BME280;50709;52.648;4.764;2023-04-06T01:38:23;101747.16;;;10.88;56.54
64388;BME280;50709;52.648;4.764;2023-04-06T01:40:49;101755.38;;;11.14;56.70
64388;BME280;50709;52.648;4.764;2023-04-06T01:43:16;101757.31;;;10.69;54.55
64388;BME280;50709;52.648;4.764;2023-04-06T01:45:43;101763.69;;;10.85;55.90
64388;BME280;50709;52.648;4.764;2023-04-06T01:48:31;101740.91;;;10.78;52.98
64388;BME280;50709;52.648;4.764;2023-04-06T01:50:59;101750.16;;;10.57;55.93
64388;BME280;50709;52.648;4.764;2023-04-06T01:53:25;101754.28;;;10.44;54.19
64388;BME280;50709;52.648;4.764;2023-04-06T01:55:51;101746.69;;;10.57;55.69
64388;BME280;50709;52.648;4.764;2023-04-06T01:58:19;101702.78;;;10.36;56.69
64388;BME280;50709;52.648;4.764;2023-04-06T02:00:48;101749.81;;;10.37;54.36
64388;BME280;50709;52.648;4.764;2023-04-06T02:03:14;101739.13;;;9.79;52.37
64388;BME280;50709;52.648;4.764;2023-04-06T02:05:40;101751.06;;;10.12;56.23
64388;BME280;50709;52.648;4.764;2023-04-06T02:08:06;101731.19;;;10.68;55.50
64388;BME280;50709;52.648;4.764;2023-04-06T02:10:40;101737.84;;;10.49;56.01
64388;BME280;50709;52.648;4.764;2023-04-06T02:13:05;101734.06;;;9.87;54.39
64388;BME280;50709;52.648;4.764;2023-04-06T02:15:32;101725.84;;;10.11;57.30
64388;BME280;50709;52.648;4.764;2023-04-06T02:18:18;101719.09;;;10.24;54.44
64388;BME280;50709;52.648;4.764;2023-04-06T02:20:45;101721.75;;;9.80;52.37
64388;BME280;50709;52.648;4.764;2023-04-06T02:23:30;101703.00;;;10.48;57.29
64388;BME280;50709;52.648;4.764;2023-04-06T02:26:00;101705.44;;;10.39;56.32
64388;BME280;50709;52.648;4.764;2023-04-06T02:28:30;101672.81;;;10.15;52.74
64388;BME280;50709;52.648;4.764;2023-04-06T02:30:57;101700.41;;;10.50;54.78
64388;BME280;50709;52.648;4.764;2023-04-06T02:33:22;101704.94;;;10.62;55.16
64388;BME280;50709;52.648;4.764;2023-04-06T02:35:48;101703.59;;;10.88;55.96
64388;BME280;50709;52.648;4.764;2023-04-06T02:38:14;101705.25;;;10.30;52.85
64388;BME280;50709;52.648;4.764;2023-04-06T02:40:59;101675.47;;;10.17;53.64
64388;BME280;50709;52.648;4.764;2023-04-06T02:43:45;101698.94;;;10.67;54.85
64388;BME280;50709;52.648;4.764;2023-04-06T02:46:10;101680.28;;;10.44;54.97
64388;BME280;50709;52.648;4.764;2023-04-06T02:48:56;101687.16;;;10.37;53.98
64388;BME280;50709;52.648;4.764;2023-04-06T02:51:41;101692.88;;;10.18;55.00
64388;BME280;50709;52.648;4.764;2023-04-06T02:54:36;101661.47;;;9.64;53.95
64388;BME280;50709;52.648;4.764;2023-04-06T02:57:03;101677.81;;;10.52;56.44
64388;BME280;50709;52.648;4.764;2023-04-06T02:59:30;101673.53;;;10.57;53.96
64388;BME280;50709;52.648;4.764;2023-04-06T03:01:59;101680.72;;;10.70;54.67
64388;BME280;50709;52.648;4.764;2023-04-06T03:04:46;101677.97;;;10.61;54.66
64388;BME280;50709;52.648;4.764;2023-04-06T03:07:32;101678.94;;;10.69;55.84
64388;BME280;50709;52.648;4.764;2023-04-06T03:09:58;101666.72;;;10.68;55.66
64388;BME280;50709;52.648;4.764;2023-04-06T03:12:28;101669.41;;;10.73;56.09
64388;BME280;50709;52.648;4.764;2023-04-06T03:14:54;101662.97;;;10.49;53.58
64388;BME280;50709;52.648;4.764;2023-04-06T03:17:21;101663.66;;;10.39;52.91
64388;BME280;50709;52.648;4.764;2023-04-06T03:20:52;101605.75;;;9.60;54.54
64388;BME280;50709;52.648;4.764;2023-04-06T03:23:42;101660.91;;;9.82;51.82
64388;BME280;50709;52.648;4.764;2023-04-06T03:26:08;101655.69;;;9.81;52.55
64388;BME280;50709;52.648;4.764;2023-04-06T03:28:55;101653.25;;;9.90;56.47
64388;BME280;50709;52.648;4.764;2023-04-06T03:31:21;101606.66;;;9.61;52.28
64388;BME280;50709;52.648;4.764;2023-04-06T03:33:47;101644.75;;;10.00;54.29
64388;BME280;50709;52.648;4.764;2023-04-06T03:36:12;101640.59;;;10.15;55.71
64388;BME280;50709;52.648;4.764;2023-04-06T03:38:39;101639.16;;;9.80;54.44
64388;BME280;50709;52.648;4.764;2023-04-06T03:41:08;101626.78;;;9.70;53.20
64388;BME280;50709;52.648;4.764;2023-04-06T03:43:53;101637.22;;;9.70;55.37
64388;BME280;50709;52.648;4.764;2023-04-06T03:46:21;101626.34;;;9.45;53.74
64388;BME280;50709;52.648;4.764;2023-04-06T03:49:06;101610.78;;;9.50;54.79
64388;BME280;50709;52.648;4.764;2023-04-06T03:51:31;101616.69;;;8.97;53.57
64388;BME280;50709;52.648;4.764;2023-04-06T03:54:37;101629.63;;;9.36;56.19
64388;BME280;50709;52.648;4.764;2023-04-06T03:57:04;101599.38;;;9.45;56.21
64388;BME280;50709;52.648;4.764;2023-04-06T03:59:50;101635.84;;;9.43;56.82
64388;BME280;50709;52.648;4.764;2023-04-06T04:02:19;101625.34;;;9.38;55.97
64388;BME280;50709;52.648;4.764;2023-04-06T04:04:49;101604.47;;;9.37;55.02
64388;BME280;50709;52.648;4.764;2023-04-06T04:07:35;101622.59;;;9.80;56.20
64388;BME280;50709;52.648;4.764;2023-04-06T04:10:01;101619.53;;;9.53;52.22
64388;BME280;50709;52.648;4.764;2023-04-06T04:12:26;101618.16;;;9.74;54.08
64388;BME280;50709;52.648;4.764;2023-04-06T04:14:53;101615.97;;;9.48;52.19
64388;BME280;50709;52.648;4.764;2023-04-06T04:17:41;101573.00;;;9.76;55.39
64388;BME280;50709;52.648;4.764;2023-04-06T04:20:07;101608.41;;;10.14;55.93
64388;BME280;50709;52.648;4.764;2023-04-06T04:22:33;101611.34;;;9.81;51.89
64388;BME280;50709;52.648;4.764;2023-04-06T04:25:02;101609.28;;;9.63;53.05
64388;BME280;50709;52.648;4.764;2023-04-06T04:27:53;101599.09;;;9.76;53.39
64388;BME280;50709;52.648;4.764;2023-04-06T04:30:23;101603.03;;;10.05;53.63
64388;BME280;50709;52.648;4.764;2023-04-06T04:32:48;101603.34;;;9.71;52.83
64388;BME280;50709;52.648;4.764;2023-04-06T04:35:34;101609.59;;;9.34;52.54
64388;BME280;50709;52.648;4.764;2023-04-06T04:37:59;101595.19;;;10.02;55.25
64388;BME280;50709;52.648;4.764;2023-04-06T04:40:26;101588.38;;;10.12;56.46
64388;BME280;50709;52.648;4.764;2023-04-06T04:42:52;101600.88;;;10.31;56.10
64388;BME280;50709;52.648;4.764;2023-04-06T04:45:17;101591.13;;;10.21;53.75
64388;BME280;50709;52.648;4.764;2023-04-06T04:48:03;101607.28;;;9.98;53.75
64388;BME280;50709;52.648;4.764;2023-04-06T04:50:30;101574.38;;;10.08;56.86
64388;BME280;50709;52.648;4.764;2023-04-06T04:52:56;101600.63;;;9.65;52.58
64388;BME280;50709;52.648;4.764;2023-04-06T04:55:22;101612.97;;;9.30;53.43
64388;BME280;50709;52.648;4.764;2023-04-06T04:58:08;101597.53;;;9.39;53.21
64388;BME280;50709;52.648;4.764;2023-04-06T05:00:54;101606.75;;;10.19;56.91
64388;BME280;50709;52.648;4.764;2023-04-06T05:03:25;101599.25;;;9.86;55.38
64388;BME280;50709;52.648;4.764;2023-04-06T05:05:51;101595.84;;;9.90;56.04
64388;BME280;50709;52.648;4.764;2023-04-06T05:08:40;101566.13;;;9.80;56.56
64388;BME280;50709;52.648;4.764;2023-04-06T05:11:05;101579.19;;;9.82;54.13
64388;BME280;50709;52.648;4.764;2023-04-06T05:13:31;101595.06;;;10.49;56.36
64388;BME280;50709;52.648;4.764;2023-04-06T05:15:58;101592.28;;;9.86;56.56
64388;BME280;50709;52.648;4.764;2023-04-06T05:18:44;101588.06;;;9.93;57.10
64388;BME280;50709;52.648;4.764;2023-04-06T05:21:29;101600.28;;;9.97;57.65
64388;BME280;50709;52.648;4.764;2023-04-06T05:23:59;101587.53;;;10.14;57.26
64388;BME280;50709;52.648;4.764;2023-04-06T05:26:28;101594.69;;;10.86;55.84
64388;BME280;50709;52.648;4.764;2023-04-06T05:29:13;101594.19;;;10.49;51.94
64388;BME280;50709;52.648;4.764;2023-04-06T05:31:39;101590.44;;;10.94;54.88
64388;BME280;50709;52.648;4.764;2023-04-06T05:34:04;101584.13;;;11.53;54.53
64388;BME280;50709;52.648;4.764;2023-04-06T05:36:30;101584.34;;;11.75;53.70
64388;BME280;50709;52.648;4.764;2023-04-06T05:38:57;101547.53;;;10.76;55.22
64388;BME280;50709;52.648;4.764;2023-04-06T05:41:23;101590.13;;;10.71;54.85
64388;BME280;50709;52.648;4.764;2023-04-06T05:43:49;101585.91;;;10.81;52.04
64388;BME280;50709;52.648;4.764;2023-04-06T05:46:15;101535.03;;;10.52;53.00
64388;BME280;50709;52.648;4.764;2023-04-06T05:48:40;101577.59;;;11.13;54.32
64388;BME280;50709;52.648;4.764;2023-04-06T05:51:06;101576.44;;;11.69;54.02
64388;BME280;50709;52.648;4.764;2023-04-06T05:53:32;101587.59;;;11.52;52.39
64388;BME280;50709;52.648;4.764;2023-04-06T05:56:00;101576.66;;;11.06;54.88
64388;BME280;50709;52.648;4.764;2023-04-06T05:58:26;101582.00;;;11.18;54.28
64388;BME280;50709;52.648;4.764;2023-04-06T06:00:57;101543.00;;;11.37;52.59
64388;BME280;50709;52.648;4.764;2023-04-06T06:03:22;101570.69;;;11.16;55.15
64388;BME280;50709;52.648;4.764;2023-04-06T06:05:48;101576.53;;;11.80;54.08
64388;BME280;50709;52.648;4.764;2023-04-06T06:08:13;101575.34;;;11.48;53.04
64388;BME280;50709;52.648;4.764;2023-04-06T06:10:39;101568.69;;;10.97;53.78
64388;BME280;50709;52.648;4.764;2023-04-06T06:13:05;101582.53;;;11.69;53.74
64388;BME280;50709;52.648;4.764;2023-04-06T06:15:31;101577.09;;;11.46;54.60
64388;BME280;50709;52.648;4.764;2023-04-06T06:17:56;101578.72;;;11.36;55.11
64388;BME280;50709;52.648;4.764;2023-04-06T06:20:22;101570.22;;;11.57;54.08
64388;BME280;50709;52.648;4.764;2023-04-06T06:22:47;101543.22;;;11.60;55.15
64388;BME280;50709;52.648;4.764;2023-04-06T06:25:13;101584.50;;;11.06;49.84
64388;BME280;50709;52.648;4.764;2023-04-06T06:27:38;101556.69;;;11.14;53.37
64388;BME280;50709;52.648;4.764;2023-04-06T06:30:04;101581.19;;;12.13;54.37
64388;BME280;50709;52.648;4.764;2023-04-06T06:32:30;101581.88;;;11.93;54.31
64388;BME280;50709;52.648;4.764;2023-04-06T06:34:55;101566.94;;;13.29;48.42
64388;BME280;50709;52.648;4.764;2023-04-06T06:37:21;101578.78;;;12.44;52.97
64388;BME280;50709;52.648;4.764;2023-04-06T06:39:46;101585.19;;;13.02;58.56
64388;BME280;50709;52.648;4.764;2023-04-06T06:42:11;101565.78;;;12.64;54.87
64388;BME280;50709;52.648;4.764;2023-04-06T06:44:37;101565.25;;;13.98;58.66
64388;BME280;50709;52.648;4.764;2023-04-06T06:47:02;101549.41;;;13.21;54.18
64388;BME280;50709;52.648;4.764;2023-04-06T06:49:27;101559.03;;;13.25;57.23
64388;BME280;50709;52.648;4.764;2023-04-06T06:51:53;101560.69;;;12.95;54.46
64388;BME280;50709;52.648;4.764;2023-04-06T06:54:18;101573.09;;;13.36;55.44
64388;BME280;50709;52.648;4.764;2023-04-06T06:56:43;101563.53;;;14.08;55.89
64388;BME280;50709;52.648;4.764;2023-04-06T06:59:09;101523.06;;;14.78;53.82
64388;BME280;50709;52.648;4.764;2023-04-06T07:01:34;101558.28;;;14.06;54.13
64388;BME280;50709;52.648;4.764;2023-04-06T07:04:00;101526.78;;;13.54;55.27
64388;BME280;50709;52.648;4.764;2023-04-06T07:06:25;101548.59;;;14.13;59.76
64388;BME280;50709;52.648;4.764;2023-04-06T07:08:51;101548.63;;;13.87;54.37
64388;BME280;50709;52.648;4.764;2023-04-06T07:11:16;101563.53;;;14.08;53.56
64388;BME280;50709;52.648;4.764;2023-04-06T07:13:42;101519.59;;;12.91;53.52
64388;BME280;50709;52.648;4.764;2023-04-06T07:16:08;101538.88;;;13.05;57.67
64388;BME280;50709;52.648;4.764;2023-04-06T07:18:33;101517.41;;;12.05;54.23
64388;BME280;50709;52.648;4.764;2023-04-06T07:20:59;101521.41;;;13.04;56.54
64388;BME280;50709;52.648;4.764;2023-04-06T07:23:24;101503.66;;;12.38;53.68
64388;BME280;50709;52.648;4.764;2023-04-06T07:25:50;101545.88;;;13.09;54.58
64388;BME280;50709;52.648;4.764;2023-04-06T07:28:17;101548.31;;;12.63;52.91
64388;BME280;50709;52.648;4.764;2023-04-06T07:30:43;101554.06;;;12.06;53.84
64388;BME280;50709;52.648;4.764;2023-04-06T07:33:08;101514.91;;;12.23;53.65
64388;BME280;50709;52.648;4.764;2023-04-06T07:35:34;101547.53;;;12.86;58.59
64388;BME280;50709;52.648;4.764;2023-04-06T07:38:00;101524.41;;;12.06;54.07
64388;BME280;50709;52.648;4.764;2023-04-06T07:40:25;101550.88;;;12.48;55.17
64388;BME280;50709;52.648;4.764;2023-04-06T07:42:52;101547.75;;;14.12;58.68
64388;BME280;50709;52.648;4.764;2023-04-06T07:45:17;101541.53;;;13.22;57.53
64388;BME280;50709;52.648;4.764;2023-04-06T07:47:43;101504.91;;;13.58;55.45
64388;BME280;50709;52.648;4.764;2023-04-06T07:50:09;101552.81;;;12.90;57.75
64388;BME280;50709;52.648;4.764;2023-04-06T07:52:35;101512.34;;;12.30;55.07
64388;BME280;50709;52.648;4.764;2023-04-06T07:55:00;101551.13;;;13.12;55.33
64388;BME280;50709;52.648;4.764;2023-04-06T07:57:26;101545.81;;;12.91;54.74
64388;BME280;50709;52.648;4.764;2023-04-06T07:59:51;101518.75;;;12.92;55.26
64388;BME280;50709;52.648;4.764;2023-04-06T08:02:17;101524.00;;;13.07;55.02
64388;BME280;50709;52.648;4.764;2023-04-06T08:04:43;101531.97;;;14.16;55.37
64388;BME280;50709;52.648;4.764;2023-04-06T08:07:08;101537.25;;;13.60;56.54
64388;BME280;50709;52.648;4.764;2023-04-06T08:09:33;101520.50;;;14.51;58.21
64388;BME280;50709;52.648;4.764;2023-04-06T08:11:59;101526.59;;;14.59;53.28
64388;BME280;50709;52.648;4.764;2023-04-06T08:14:24;101536.38;;;14.12;55.40
64388;BME280;50709;52.648;4.764;2023-04-06T08:16:50;101531.09;;;14.17;55.17
64388;BME280;50709;52.648;4.764;2023-04-06T08:19:15;101537.13;;;13.09;55.23
64388;BME280;50709;52.648;4.764;2023-04-06T08:21:42;101543.13;;;12.71;57.39
64388;BME280;50709;52.648;4.764;2023-04-06T08:24:08;101511.63;;;12.60;54.59
64388;BME280;50709;52.648;4.764;2023-04-06T08:26:33;101549.25;;;12.74;56.87
64388;BME280;50709;52.648;4.764;2023-04-06T08:28:59;101514.22;;;12.57;56.02
64388;BME280;50709;52.648;4.764;2023-04-06T08:31:25;101550.97;;;12.72;53.48
64388;BME280;50709;52.648;4.764;2023-04-06T08:33:51;101534.38;;;12.73;54.79
64388;BME280;50709;52.648;4.764;2023-04-06T08:36:16;101522.25;;;13.06;55.23
64388;BME280;50709;52.648;4.764;2023-04-06T08:38:45;101512.66;;;13.04;55.75
64388;BME280;50709;52.648;4.764;2023-04-06T08:41:12;101512.78;;;13.47;55.42
64388;BME280;50709;52.648;4.764;2023-04-06T08:43:46;101508.03;;;12.38;54.45
64388;BME280;50709;52.648;4.764;2023-04-06T08:46:12;101525.56;;;12.56;56.52
64388;BME280;50709;52.648;4.764;2023-04-06T08:48:40;101518.88;;;13.38;56.83
64388;BME280;50709;52.648;4.764;2023-04-06T08:51:05;101490.03;;;13.57;57.74
64388;BME280;50709;52.648;4.764;2023-04-06T08:53:31;101519.69;;;13.34;55.33
64388;BME280;50709;52.648;4.764;2023-04-06T08:55:57;101523.28;;;13.70;56.33
64388;BME280;50709;52.648;4.764;2023-04-06T08:58:24;101498.78;;;13.84;53.99
64388;BME280;50709;52.648;4.764;2023-04-06T09:00:50;101535.44;;;14.39;59.07
64388;BME280;50709;52.648;4.764;2023-04-06T09:03:18;101498.63;;;14.42;59.53
64388;BME280;50709;52.648;4.764;2023-04-06T09:05:46;101525.69;;;14.80;53.48
64388;BME280;50709;52.648;4.764;2023-04-06T09:08:11;101515.38;;;13.92;54.05
64388;BME280;50709;52.648;4.764;2023-04-06T09:10:40;101522.28;;;14.33;55.72
64388;BME280;50709;52.648;4.764;2023-04-06T09:13:06;101533.75;;;13.84;53.13
64388;BME280;50709;52.648;4.764;2023-04-06T09:15:32;101510.88;;;14.46;53.62
64388;BME280;50709;52.648;4.764;2023-04-06T09:17:58;101522.34;;;14.18;58.24
64388;BME280;50709;52.648;4.764;2023-04-06T09:20:24;101529.25;;;14.48;57.64
64388;BME280;50709;52.648;4.764;2023-04-06T09:22:54;101530.19;;;14.39;58.68
64388;BME280;50709;52.648;4.764;2023-04-06T09:25:21;101523.78;;;15.07;57.10
64388;BME280;50709;52.648;4.764;2023-04-06T09:27:48;101516.81;;;15.01;56.32
64388;BME280;50709;52.648;4.764;2023-04-06T09:30:15;101485.31;;;14.86;58.99
64388;BME280;50709;52.648;4.764;2023-04-06T09:32:58;101527.44;;;14.79;57.01
64388;BME280;50709;52.648;4.764;2023-04-06T09:35:24;101523.13;;;14.66;58.07
64388;BME280;50709;52.648;4.764;2023-04-06T09:37:52;101508.25;;;14.45;56.56
64388;BME280;50709;52.648;4.764;2023-04-06T09:40:19;101504.63;;;14.83;56.86
64388;BME280;50709;52.648;4.764;2023-04-06T09:42:45;101488.00;;;14.78;58.25
64388;BME280;50709;52.648;4.764;2023-04-06T09:45:12;101506.47;;;14.64;56.95
64388;BME280;50709;52.648;4.764;2023-04-06T09:47:39;101495.06;;;14.59;57.57
64388;BME280;50709;52.648;4.764;2023-04-06T09:50:07;101481.16;;;14.35;57.70
64388;BME280;50709;52.648;4.764;2023-04-06T09:52:57;101503.13;;;13.48;58.42
64388;BME280;50709;52.648;4.764;2023-04-06T09:55:30;101494.41;;;13.78;58.10
64388;BME280;50709;52.648;4.764;2023-04-06T09:58:06;101525.91;;;13.70;59.17
64388;BME280;50709;52.648;4.764;2023-04-06T10:03:45;101523.97;;;12.92;61.75
64388;BME280;50709;52.648;4.764;2023-04-06T10:06:13;101511.03;;;13.57;61.29
64388;BME280;50709;52.648;4.764;2023-04-06T10:08:40;101523.97;;;12.96;60.54
64388;BME280;50709;52.648;4.764;2023-04-06T10:11:08;101502.00;;;12.53;61.26
64388;BME280;50709;52.648;4.764;2023-04-06T10:13:35;101503.84;;;12.83;61.51
64388;BME280;50709;52.648;4.764;2023-04-06T10:16:00;101489.06;;;13.11;61.96
64388;BME280;50709;52.648;4.764;2023-04-06T10:18:27;101521.25;;;12.61;61.73
64388;BME280;50709;52.648;4.764;2023-04-06T10:21:11;101519.56;;;12.77;62.79
64388;BME280;50709;52.648;4.764;2023-04-06T10:23:46;101504.88;;;13.38;62.80
64388;BME280;50709;52.648;4.764;2023-04-06T10:26:14;101513.38;;;12.64;61.99
64388;BME280;50709;52.648;4.764;2023-04-06T10:28:42;101517.75;;;12.65;62.82
64388;BME280;50709;52.648;4.764;2023-04-06T10:31:07;101511.13;;;11.83;61.60
64388;BME280;50709;52.648;4.764;2023-04-06T10:33:33;101499.38;;;12.53;61.57
64388;BME280;50709;52.648;4.764;2023-04-06T10:36:21;101475.69;;;12.34;62.04
64388;BME280;50709;52.648;4.764;2023-04-06T10:38:46;101486.44;;;13.21;62.62
64388;BME280;50709;52.648;4.764;2023-04-06T10:41:12;101473.31;;;13.10;62.39
64388;BME280;50709;52.648;4.764;2023-04-06T10:43:39;101495.16;;;12.98;62.84
64388;BME280;50709;52.648;4.764;2023-04-06T10:46:06;101505.38;;;12.32;65.05
64388;BME280;50709;52.648;4.764;2023-04-06T10:48:43;101485.53;;;12.89;63.51
64388;BME280;50709;52.648;4.764;2023-04-06T10:51:15;101486.47;;;13.15;63.55
64388;BME280;50709;52.648;4.764;2023-04-06T10:53:47;101472.44;;;13.16;62.62
64388;BME280;50709;52.648;4.764;2023-04-06T10:56:17;101486.06;;;12.17;65.09
64388;BME280;50709;52.648;4.764;2023-04-06T10:58:51;101448.63;;;12.34;64.89
64388;BME280;50709;52.648;4.764;2023-04-06T11:01:18;101477.97;;;11.80;64.25
64388;BME280;50709;52.648;4.764;2023-04-06T11:03:45;101472.75;;;11.83;64.69
64388;BME280;50709;52.648;4.764;2023-04-06T11:06:18;101467.13;;;12.85;66.19
64388;BME280;50709;52.648;4.764;2023-04-06T11:08:43;101457.19;;;11.97;65.21
64388;BME280;50709;52.648;4.764;2023-04-06T11:11:09;101467.09;;;12.68;64.19
64388;BME280;50709;52.648;4.764;2023-04-06T11:13:42;101474.16;;;12.96;64.19
64388;BME280;50709;52.648;4.764;2023-04-06T11:16:24;101448.78;;;12.80;65.26
64388;BME280;50709;52.648;4.764;2023-04-06T11:18:55;101462.34;;;11.94;66.01
64388;BME280;50709;52.648;4.764;2023-04-06T11:24:23;101438.91;;;12.11;65.21
64388;BME280;50709;52.648;4.764;2023-04-06T11:29:22;101447.78;;;12.45;66.45
64388;BME280;50709;52.648;4.764;2023-04-06T11:31:51;101446.09;;;12.60;66.61
64388;BME280;50709;52.648;4.764;2023-04-06T11:34:21;101433.13;;;13.76;64.23
64388;BME280;50709;52.648;4.764;2023-04-06T11:36:49;101418.94;;;14.36;62.65
64388;BME280;50709;52.648;4.764;2023-04-06T11:39:19;101411.25;;;13.78;60.91
64388;BME280;50709;52.648;4.764;2023-04-06T11:41:52;101418.25;;;13.21;62.83
64388;BME280;50709;52.648;4.764;2023-04-06T11:44:37;101448.50;;;12.07;64.25
64388;BME280;50709;52.648;4.764;2023-04-06T11:47:05;101444.16;;;12.11;64.23
64388;BME280;50709;52.648;4.764;2023-04-06T11:49:32;101449.16;;;11.78;65.79
64388;BME280;50709;52.648;4.764;2023-04-06T11:51:59;101443.16;;;11.92;66.12
64388;BME280;50709;52.648;4.764;2023-04-06T11:54:36;101430.56;;;11.43;66.54
64388;BME280;50709;52.648;4.764;2023-04-06T11:57:04;101413.47;;;11.93;66.13
64388;BME280;50709;52.648;4.764;2023-04-06T11:59:29;101423.38;;;12.57;64.72
64388;BME280;50709;52.648;4.764;2023-04-06T12:01:56;101423.22;;;12.13;65.40
64388;BME280;50709;52.648;4.764;2023-04-06T12:04:22;101414.34;;;11.92;66.91
64388;BME280;50709;52.648;4.764;2023-04-06T12:06:48;101414.16;;;11.64;66.98
64388;BME280;50709;52.648;4.764;2023-04-06T12:09:13;101419.41;;;11.67;67.45
64388;BME280;50709;52.648;4.764;2023-04-06T12:11:39;101399.47;;;11.86;67.66
64388;BME280;50709;52.648;4.764;2023-04-06T12:14:06;101409.94;;;11.86;66.59
64388;BME280;50709;52.648;4.764;2023-04-06T12:16:33;101403.41;;;13.57;66.53
64388;BME280;50709;52.648;4.764;2023-04-06T12:18:59;101373.16;;;11.60;66.70
64388;BME280;50709;52.648;4.764;2023-04-06T12:21:27;101407.03;;;11.41;67.89
64388;BME280;50709;52.648;4.764;2023-04-06T12:23:53;101412.41;;;11.63;68.54
64388;BME280;50709;52.648;4.764;2023-04-06T12:26:18;101405.75;;;12.05;68.52
64388;BME280;50709;52.648;4.764;2023-04-06T12:28:44;101378.66;;;10.85;69.63
64388;BME280;50709;52.648;4.764;2023-04-06T12:31:17;101403.06;;;11.94;68.73
64388;BME280;50709;52.648;4.764;2023-04-06T12:33:43;101404.63;;;11.74;68.21
64388;BME280;50709;52.648;4.764;2023-04-06T12:36:13;101382.56;;;11.35;70.32
64388;BME280;50709;52.648;4.764;2023-04-06T12:38:39;101402.06;;;11.83;69.62
64388;BME280;50709;52.648;4.764;2023-04-06T12:41:06;101375.13;;;11.97;66.88
64388;BME280;50709;52.648;4.764;2023-04-06T12:43:31;101399.16;;;11.37;68.82
64388;BME280;50709;52.648;4.764;2023-04-06T12:45:57;101400.50;;;12.05;69.15
64388;BME280;50709;52.648;4.764;2023-04-06T12:48:22;101406.09;;;11.35;70.00
64388;BME280;50709;52.648;4.764;2023-04-06T12:51:08;101393.59;;;12.26;68.61
64388;BME280;50709;52.648;4.764;2023-04-06T12:53:34;101383.63;;;11.61;69.87
64388;BME280;50709;52.648;4.764;2023-04-06T12:56:01;101391.59;;;11.80;69.16
64388;BME280;50709;52.648;4.764;2023-04-06T12:58:26;101395.06;;;11.73;69.25
64388;BME280;50709;52.648;4.764;2023-04-06T13:00:53;101401.09;;;11.66;70.27
64388;BME280;50709;52.648;4.764;2023-04-06T13:03:19;101385.38;;;11.63;69.00
64388;BME280;50709;52.648;4.764;2023-04-06T13:05:46;101394.91;;;11.53;69.49
64388;BME280;50709;52.648;4.764;2023-04-06T13:08:13;101397.63;;;11.70;71.40
64388;BME280;50709;52.648;4.764;2023-04-06T13:10:49;101354.84;;;11.58;68.60
64388;BME280;50709;52.648;4.764;2023-04-06T13:13:16;101381.50;;;12.71;68.60